Time;durP1;ratioP1;P1;durP2;ratioP2;P2;SDS_P1;SDS_P2;PMS_P1;PMS_P2;Temp;Humidity;BMP_temperature;BMP_pressure;BME280_temperature;BME280_humidity;BME280_pressure;Samples;Min_cycle;Max_cycle;Signal;HPM_P1;HPM_P2
2022/06/26 00:00:12;;;;;;;2.28;1.65;;;;;;;19.44;68.24;98575.53;2618714;54;20030;-66
2022/06/26 00:02:44;;;;;;;1.73;1.15;;;;;;;19.50;68.98;98581.75;2618971;54;20038;-65
2022/06/26 00:05:14;;;;;;;2.00;1.30;;;;;;;19.59;69.03;98582.06;2619463;39;20390;-64
2022/06/26 00:07:45;;;;;;;3.40;1.50;;;;;;;19.63;69.07;98575.97;2618669;54;20031;-65
2022/06/26 00:10:15;;;;;;;1.52;1.40;;;;;;;19.74;69.01;98571.50;2618880;54;20031;-64
2022/06/26 00:12:44;;;;;;;2.92;1.50;;;;;;;19.79;68.99;98575.00;2618082;54;20034;-64
2022/06/26 00:15:14;;;;;;;1.70;1.60;;;;;;;19.89;69.00;98581.53;2618869;54;20038;-66
2022/06/26 00:17:46;;;;;;;6.85;1.50;;;;;;;20.02;68.62;98579.19;2618065;54;20035;-68
2022/06/26 00:20:16;;;;;;;1.30;1.20;;;;;;;20.04;68.08;98585.13;2619150;54;20035;-65
2022/06/26 00:22:46;;;;;;;2.35;1.38;;;;;;;20.00;68.08;98580.50;2619334;54;20026;-64
2022/06/26 00:25:15;;;;;;;2.55;1.52;;;;;;;19.94;68.53;98589.63;2619273;54;20541;-64
2022/06/26 00:27:46;;;;;;;4.93;1.50;;;;;;;19.84;69.09;98587.69;2622380;47;20030;-64
2022/06/26 00:30:16;;;;;;;2.70;1.40;;;;;;;19.80;69.46;98600.00;2622582;39;20404;-64
2022/06/26 00:32:48;;;;;;;1.55;1.45;;;;;;;19.80;69.93;98602.66;2619621;54;20538;-63
2022/06/26 00:35:18;;;;;;;1.80;1.30;;;;;;;19.83;70.14;98604.81;2618177;47;20137;-64
2022/06/26 00:37:48;;;;;;;1.30;1.20;;;;;;;19.81;69.60;98616.88;2618996;54;20045;-64
2022/06/26 00:40:18;;;;;;;2.65;1.33;;;;;;;19.77;69.54;98612.03;2618451;54;20033;-64
2022/06/26 00:42:48;;;;;;;3.42;1.40;;;;;;;19.76;69.33;98620.34;2618910;54;20045;-64
2022/06/26 00:45:18;;;;;;;4.30;1.55;;;;;;;19.73;69.15;98629.69;2618971;54;20998;-64
2022/06/26 00:47:50;;;;;;;1.80;1.02;;;;;;;19.69;69.05;98627.78;2618899;54;20055;-64
2022/06/26 00:50:20;;;;;;;1.70;1.60;;;;;;;19.65;69.67;98632.03;2619049;54;20038;-64
2022/06/26 00:52:51;;;;;;;2.83;1.50;;;;;;;19.62;70.12;98649.44;2619487;39;20461;-64
2022/06/26 00:55:21;;;;;;;3.50;1.40;;;;;;;19.63;70.27;98660.97;2618934;54;20026;-64
2022/06/26 00:57:51;;;;;;;2.85;1.35;;;;;;;19.59;70.36;98663.31;2618168;54;20027;-63
2022/06/26 01:00:23;;;;;;;5.35;1.52;;;;;;;19.56;70.70;98661.16;2618635;54;20031;-64
2022/06/26 01:02:55;;;;;;;3.08;1.70;;;;;;;19.61;70.26;98661.25;2618740;54;20526;-64
2022/06/26 01:05:25;;;;;;;1.50;1.38;;;;;;;19.61;70.33;98661.25;2621408;47;20034;-64
2022/06/26 01:07:56;;;;;;;2.80;1.25;;;;;;;19.63;70.22;98671.69;2621820;54;20030;-65
2022/06/26 01:10:26;;;;;;;1.48;1.38;;;;;;;19.67;70.22;98670.94;2621177;51;21265;-65
2022/06/26 01:12:56;;;;;;;1.60;1.15;;;;;;;19.69;70.62;98676.88;2621517;54;20070;-66
2022/06/26 01:15:26;;;;;;;2.30;1.20;;;;;;;19.70;70.33;98661.56;2622143;39;20322;-63
2022/06/26 01:17:58;;;;;;;2.58;1.70;;;;;;;19.72;70.44;98649.53;2621602;47;20022;-64
2022/06/26 01:20:28;;;;;;;1.48;1.38;;;;;;;19.71;70.52;98647.09;2621652;54;20026;-64
2022/06/26 01:23:07;;;;;;;1.50;1.40;;;;;;;19.70;70.35;98642.81;2621483;47;20031;-64
2022/06/26 01:25:46;;;;;;;1.85;1.48;;;;;;;19.67;70.51;98641.44;2621679;54;20050;-65
2022/06/26 01:28:17;;;;;;;3.08;1.50;;;;;;;19.64;70.53;98641.16;2621411;46;20077;-64
2022/06/26 01:30:47;;;;;;;2.17;1.40;;;;;;;19.61;71.16;98653.19;2621543;54;20034;-64
2022/06/26 01:33:17;;;;;;;2.45;1.85;;;;;;;19.62;71.14;98652.13;2620173;39;20112;-64
2022/06/26 01:35:48;;;;;;;4.55;1.77;;;;;;;19.61;70.87;98639.78;2620737;47;20038;-64
2022/06/26 01:38:25;;;;;;;3.05;1.50;;;;;;;19.59;71.35;98636.50;2622941;54;20034;-64
2022/06/26 01:40:56;;;;;;;2.58;1.17;;;;;;;19.57;70.83;98640.53;2618205;54;20030;-65
2022/06/26 01:43:30;;;;;;;10.35;1.77;;;;;;;19.49;70.68;98639.13;2618852;54;20030;-64
2022/06/26 01:46:01;;;;;;;1.95;1.30;;;;;;;19.45;70.69;98646.84;2621720;47;20080;-64
2022/06/26 01:48:37;;;;;;;3.28;1.27;;;;;;;19.42;70.82;98647.34;2624843;54;20557;-64
2022/06/26 01:51:09;;;;;;;5.32;1.70;;;;;;;19.43;71.30;98648.16;2624801;54;20026;-65
2022/06/26 01:53:43;;;;;;;2.72;1.30;;;;;;;19.47;71.14;98646.59;2624862;54;20050;-64
2022/06/26 01:56:14;;;;;;;3.00;1.30;;;;;;;19.47;71.04;98652.78;2624470;54;20041;-64
2022/06/26 01:58:49;;;;;;;5.05;1.23;;;;;;;19.47;70.94;98652.78;2623220;47;20078;-64
2022/06/26 02:01:23;;;;;;;3.92;1.60;;;;;;;19.37;70.88;98657.22;2622973;47;20077;-65
2022/06/26 02:03:53;;;;;;;2.65;1.50;;;;;;;19.35;71.53;98654.81;2624117;47;20042;-66
2022/06/26 02:06:23;;;;;;;4.80;1.65;;;;;;;19.37;71.73;98650.00;2624617;54;20033;-64
2022/06/26 02:08:57;;;;;;;1.45;1.35;;;;;;;19.29;71.82;98647.75;2626874;39;20128;-64
2022/06/26 02:14:10;;;;;;;1.75;1.30;;;;;;;19.35;71.96;98645.94;2622904;47;20038;-66
2022/06/26 02:16:45;;;;;;;2.17;1.30;;;;;;;19.29;71.96;98650.44;2624052;54;20037;-66
2022/06/26 02:19:16;;;;;;;1.88;1.40;;;;;;;19.35;72.05;98653.97;2623653;47;20078;-66
2022/06/26 02:21:46;;;;;;;1.73;1.58;;;;;;;19.32;71.88;98657.19;2624320;54;20077;-65
2022/06/26 02:24:21;;;;;;;4.00;1.67;;;;;;;19.23;72.28;98657.63;2623213;54;20034;-65
2022/06/26 02:26:51;;;;;;;5.25;1.77;;;;;;;19.16;72.71;98651.66;2623923;54;20034;-66
2022/06/26 02:29:20;;;;;;;2.97;2.00;;;;;;;19.10;72.82;98647.28;2625557;39;20448;-67
2022/06/26 02:31:50;;;;;;;2.70;1.80;;;;;;;19.09;73.51;98647.56;2623976;39;20458;-65
2022/06/26 02:34:20;;;;;;;2.47;1.40;;;;;;;19.13;73.48;98644.13;2623524;54;20026;-65
2022/06/26 02:36:49;;;;;;;3.20;1.70;;;;;;;19.19;73.31;98643.13;2624346;54;20022;-64
2022/06/26 02:39:22;;;;;;;3.40;1.80;;;;;;;19.23;72.79;98644.22;2623330;47;20033;-64
2022/06/26 02:41:53;;;;;;;3.67;1.75;;;;;;;19.19;73.36;98645.81;2619389;51;20019;-64
2022/06/26 02:44:23;;;;;;;4.13;1.50;;;;;;;19.22;72.77;98637.22;2618068;54;20035;-64
2022/06/26 02:46:53;;;;;;;1.70;1.60;;;;;;;19.19;73.13;98643.13;2617813;54;20035;-64
2022/06/26 02:49:22;;;;;;;2.45;1.80;;;;;;;19.18;72.99;98633.44;2618679;47;20027;-64
2022/06/26 02:51:52;;;;;;;2.40;1.67;;;;;;;19.10;73.51;98636.56;2618991;47;20061;-64
2022/06/26 02:54:25;;;;;;;1.73;1.38;;;;;;;19.09;73.54;98634.97;2618674;47;20023;-64
2022/06/26 02:56:55;;;;;;;1.58;1.48;;;;;;;19.09;73.23;98634.16;2621670;54;20029;-64
2022/06/26 02:59:25;;;;;;;2.30;1.88;;;;;;;19.08;73.13;98638.72;2622965;54;20085;-65
2022/06/26 03:01:57;;;;;;;2.88;1.63;;;;;;;19.09;73.33;98640.31;2622067;54;20030;-66
2022/06/26 03:04:44;;;;;;;4.32;2.20;;;;;;;19.06;73.69;98630.09;2620195;54;20035;-65
2022/06/26 03:07:19;;;;;;;3.67;1.77;;;;;;;19.04;73.63;98642.94;2618917;51;20026;-65
2022/06/26 03:09:52;;;;;;;2.95;1.52;;;;;;;19.07;73.52;98650.50;2618819;54;20118;-64
2022/06/26 03:12:22;;;;;;;1.35;1.27;;;;;;;18.99;73.56;98653.63;2618278;54;20112;-64
2022/06/26 03:14:52;;;;;;;3.67;1.92;;;;;;;18.98;73.71;98638.59;2618926;39;20437;-65
2022/06/26 03:17:22;;;;;;;1.90;1.50;;;;;;;18.98;73.85;98641.25;2618388;51;20058;-65
2022/06/26 03:19:52;;;;;;;3.10;1.40;;;;;;;18.98;73.68;98655.50;2618385;51;20030;-66
2022/06/26 03:22:21;;;;;;;3.03;1.73;;;;;;;19.00;73.76;98658.72;2618667;39;20411;-64
2022/06/26 03:24:53;;;;;;;4.65;2.17;;;;;;;19.02;73.83;98650.41;2618249;47;20081;-65
2022/06/26 03:27:28;;;;;;;3.08;1.50;;;;;;;19.02;73.52;98655.78;2618228;54;20034;-65
2022/06/26 03:29:58;;;;;;;1.75;1.50;;;;;;;19.03;73.45;98660.09;2618332;54;20053;-65
2022/06/26 03:32:27;;;;;;;5.20;1.73;;;;;;;19.06;73.57;98648.84;2618117;47;20023;-65
2022/06/26 03:35:11;;;;;;;2.30;2.08;;;;;;;18.99;73.10;98635.66;2618079;47;20042;-65
2022/06/26 03:37:41;;;;;;;5.88;1.55;;;;;;;18.98;73.25;98638.59;2618167;47;20018;-65
2022/06/26 03:40:15;;;;;;;1.98;1.60;;;;;;;18.99;73.58;98645.59;2618581;54;20038;-65
2022/06/26 03:42:47;;;;;;;3.88;1.55;;;;;;;18.96;73.45;98649.56;2617938;54;20022;-65
2022/06/26 03:45:18;;;;;;;2.65;1.73;;;;;;;19.03;73.34;98660.91;2618534;54;20031;-65
2022/06/26 03:47:47;;;;;;;2.53;1.63;;;;;;;19.09;72.92;98659.06;2618350;47;20035;-64
2022/06/26 03:50:18;;;;;;;10.65;1.55;;;;;;;19.11;72.15;98662.31;2618594;47;20530;-65
2022/06/26 03:52:50;;;;;;;2.60;1.35;;;;;;;19.04;72.43;98661.69;2618891;39;20534;-64
2022/06/26 03:55:23;;;;;;;2.22;1.30;;;;;;;19.06;72.28;98654.22;2618643;39;20323;-64
2022/06/26 03:57:53;;;;;;;4.03;1.60;;;;;;;19.04;71.69;98659.03;2619143;54;20038;-67
2022/06/26 04:03:31;;;;;;;2.47;1.50;;;;;;;18.95;72.04;98677.41;2614572;54;20158;-64
2022/06/26 04:06:02;;;;;;;3.35;1.58;;;;;;;18.91;72.21;98670.13;2618712;39;20422;-65
2022/06/26 04:08:38;;;;;;;1.83;1.60;;;;;;;18.87;72.29;98677.84;2619070;54;20035;-64
2022/06/26 04:11:13;;;;;;;4.45;1.67;;;;;;;18.91;71.87;98675.47;2618434;47;20029;-67
2022/06/26 04:13:43;;;;;;;6.63;1.63;;;;;;;18.92;71.95;98672.53;2618615;54;20026;-66
2022/06/26 04:16:15;;;;;;;4.72;1.65;;;;;;;18.95;71.85;98669.38;2621487;47;20037;-66
2022/06/26 04:18:48;;;;;;;2.35;1.60;;;;;;;18.98;71.63;98654.66;2621479;54;20034;-65
2022/06/26 04:21:19;;;;;;;2.90;1.60;;;;;;;18.96;71.57;98657.59;2621590;54;20029;-66
2022/06/26 04:23:50;;;;;;;2.28;1.63;;;;;;;18.98;71.58;98658.16;2620213;39;20459;-66
2022/06/26 04:26:24;;;;;;;1.88;1.38;;;;;;;19.01;71.27;98652.28;2618379;54;20038;-65
2022/06/26 04:28:53;;;;;;;2.40;1.40;;;;;;;18.99;71.33;98653.63;2618275;54;20022;-65
2022/06/26 04:31:23;;;;;;;2.63;1.40;;;;;;;18.97;71.54;98672.59;2617872;54;20027;-65
2022/06/26 04:33:55;;;;;;;2.55;1.70;;;;;;;19.05;71.25;98666.78;2618307;54;20030;-65
2022/06/26 04:36:26;;;;;;;2.85;1.60;;;;;;;19.18;71.14;98659.44;2618428;54;20033;-66
2022/06/26 04:38:56;;;;;;;5.65;1.88;;;;;;;19.30;70.88;98665.47;2618500;39;20437;-64
2022/06/26 04:41:35;;;;;;;4.78;1.73;;;;;;;19.37;70.38;98673.31;2618000;54;20064;-65
2022/06/26 04:44:06;;;;;;;3.97;1.92;;;;;;;19.39;70.43;98676.53;2617799;51;20594;-65
2022/06/26 04:46:36;;;;;;;3.53;1.90;;;;;;;19.39;70.31;98681.88;2618118;54;20026;-64
2022/06/26 04:49:08;;;;;;;2.13;1.52;;;;;;;19.29;70.90;98688.78;2617998;47;20120;-64
2022/06/26 04:51:38;;;;;;;3.55;1.65;;;;;;;19.25;70.78;98686.84;2618572;54;20537;-64
2022/06/26 04:54:23;;;;;;;2.33;1.40;;;;;;;19.16;71.08;98673.09;2618131;54;20035;-65
2022/06/26 04:56:56;;;;;;;2.95;1.40;;;;;;;19.20;71.20;98666.16;2618533;54;20030;-65
2022/06/26 04:59:26;;;;;;;1.45;1.25;;;;;;;19.18;70.77;98670.16;2617783;54;20049;-65
2022/06/26 05:02:03;;;;;;;2.83;1.45;;;;;;;19.28;70.74;98683.69;2617914;39;20407;-65
2022/06/26 05:04:56;;;;;;;2.47;1.70;;;;;;;19.34;70.25;98682.66;2617565;54;20030;-64
2022/06/26 05:07:37;;;;;;;2.92;1.70;;;;;;;19.27;70.51;98677.50;2618111;46;20047;-64
2022/06/26 05:10:10;;;;;;;2.03;1.83;;;;;;;19.26;70.43;98689.25;2617662;54;20026;-64
2022/06/26 05:12:54;;;;;;;2.95;1.30;;;;;;;19.32;70.66;98697.38;2617840;54;20030;-64
2022/06/26 05:15:46;;;;;;;3.47;1.73;;;;;;;19.40;70.47;98696.94;2618227;54;20037;-64
2022/06/26 05:18:17;;;;;;;4.18;1.83;;;;;;;19.44;69.67;98712.25;2617936;47;20542;-65
2022/06/26 05:20:47;;;;;;;4.00;1.50;;;;;;;19.53;69.72;98709.94;2618645;54;20052;-64
2022/06/26 05:23:17;;;;;;;4.00;1.30;;;;;;;19.66;69.53;98714.09;2619141;39;20430;-65
2022/06/26 05:25:55;;;;;;;3.60;1.50;;;;;;;19.79;68.98;98703.75;2617647;54;20023;-65
2022/06/26 05:28:27;;;;;;;2.45;1.50;;;;;;;19.79;68.85;98694.91;2617707;54;20046;-65
2022/06/26 05:30:57;;;;;;;2.05;1.40;;;;;;;19.69;68.37;98700.19;2617599;54;20033;-65
2022/06/26 05:33:27;;;;;;;1.85;1.50;;;;;;;19.64;68.43;98711.69;2617260;54;20057;-64
2022/06/26 05:35:57;;;;;;;2.55;1.60;;;;;;;19.69;68.78;98714.41;2618360;54;20057;-65
2022/06/26 05:38:27;;;;;;;3.33;1.70;;;;;;;19.65;68.84;98715.16;2617745;50;20054;-65
2022/06/26 05:40:57;;;;;;;4.70;1.55;;;;;;;19.73;68.47;98715.53;2617901;47;20033;-65
2022/06/26 05:43:31;;;;;;;3.47;1.63;;;;;;;19.92;68.36;98720.50;2617562;39;20293;-64
2022/06/26 05:46:01;;;;;;;4.15;2.00;;;;;;;20.01;68.33;98719.00;2617721;47;20052;-65
2022/06/26 05:49:00;;;;;;;4.13;1.80;;;;;;;20.13;67.64;98726.88;2618072;54;20061;-64
2022/06/26 05:51:51;;;;;;;6.22;2.15;;;;;;;20.21;67.80;98723.72;2619188;47;20042;-65
2022/06/26 05:54:37;;;;;;;8.20;2.42;;;;;;;20.31;67.63;98733.69;2622190;54;20061;-65
2022/06/26 05:57:19;;;;;;;4.82;2.20;;;;;;;20.44;67.04;98735.94;2617728;47;20034;-64
2022/06/26 06:00:12;;;;;;;7.47;2.67;;;;;;;20.40;66.00;98738.31;2618371;54;20057;-64
2022/06/26 06:02:47;;;;;;;5.78;2.60;;;;;;;20.43;66.26;98739.69;2618088;54;20566;-64
2022/06/26 06:05:21;;;;;;;6.90;2.40;;;;;;;20.51;66.38;98744.63;2617262;47;20023;-65
2022/06/26 06:07:51;;;;;;;2.78;2.45;;;;;;;20.56;66.33;98749.19;2617455;54;20041;-66
2022/06/26 06:10:21;;;;;;;2.95;2.40;;;;;;;20.48;65.80;98750.47;2618639;39;20194;-65
2022/06/26 06:12:51;;;;;;;4.72;2.63;;;;;;;20.46;66.19;98760.66;2617403;47;20522;-65
2022/06/26 06:15:26;;;;;;;4.47;2.40;;;;;;;20.63;66.36;98755.16;2617396;54;20082;-66
2022/06/26 06:17:58;;;;;;;3.08;2.45;;;;;;;20.62;65.40;98767.78;2617922;47;20255;-64
2022/06/26 06:20:28;;;;;;;2.78;2.50;;;;;;;20.57;65.29;98769.63;2618072;54;20026;-65
2022/06/26 06:23:03;;;;;;;5.20;2.30;;;;;;;20.60;65.70;98777.97;2617843;54;20033;-64
2022/06/26 06:25:34;;;;;;;4.22;2.45;;;;;;;20.53;65.75;98796.16;2618712;47;20026;-65
2022/06/26 06:28:06;;;;;;;4.32;3.00;;;;;;;20.63;65.69;98790.06;2618575;54;20038;-64
2022/06/26 06:30:43;;;;;;;5.22;2.72;;;;;;;20.68;65.06;98793.59;2618363;47;20023;-64
2022/06/26 06:33:19;;;;;;;4.93;2.47;;;;;;;20.74;65.14;98795.25;2618160;54;20022;-63
2022/06/26 06:35:51;;;;;;;3.45;2.47;;;;;;;20.86;64.76;98796.91;2618330;47;20030;-65
2022/06/26 06:38:21;;;;;;;6.35;2.92;;;;;;;20.92;64.29;98801.28;2618524;51;20026;-64
2022/06/26 06:40:56;;;;;;;4.85;2.60;;;;;;;20.84;64.82;98804.44;2618660;47;20027;-64
2022/06/26 06:43:36;;;;;;;3.13;2.65;;;;;;;20.81;64.56;98804.97;2618166;54;20042;-65
2022/06/26 06:46:41;;;;;;;3.70;2.88;;;;;;;20.73;64.95;98801.69;2618437;47;20049;-64
2022/06/26 06:49:25;;;;;;;6.00;3.20;;;;;;;20.80;64.51;98801.47;2618363;47;20027;-63
2022/06/26 06:51:56;;;;;;;5.82;3.22;;;;;;;20.89;64.96;98807.97;2622420;54;20109;-64
2022/06/26 06:54:26;;;;;;;3.42;3.13;;;;;;;21.01;64.17;98805.06;2623148;54;20030;-64
2022/06/26 06:56:55;;;;;;;4.30;2.90;;;;;;;20.94;63.60;98818.75;2622345;47;20026;-65
2022/06/26 06:59:25;;;;;;;3.97;3.35;;;;;;;20.93;63.49;98813.63;2619717;47;20030;-65
2022/06/26 07:01:57;;;;;;;3.90;3.00;;;;;;;21.15;63.51;98817.00;2618794;54;20039;-65
2022/06/26 07:04:27;;;;;;;3.03;2.72;;;;;;;21.50;63.35;98819.03;2618263;47;20030;-65
2022/06/26 07:07:00;;;;;;;3.17;2.42;;;;;;;21.45;62.85;98816.34;2618688;54;20033;-65
2022/06/26 07:09:30;;;;;;;4.38;2.80;;;;;;;21.32;62.48;98808.78;2618574;47;20049;-65
2022/06/26 07:12:00;;;;;;;4.10;2.78;;;;;;;21.43;62.73;98815.81;2618221;47;20030;-66
2022/06/26 07:14:30;;;;;;;4.22;2.53;;;;;;;21.62;61.44;98818.03;2618920;54;20031;-65
2022/06/26 07:17:03;;;;;;;2.72;2.50;;;;;;;21.61;60.69;98811.03;2618261;54;20037;-65
2022/06/26 07:19:32;;;;;;;3.95;2.20;;;;;;;21.69;61.19;98821.28;2619035;54;20030;-64
2022/06/26 07:22:03;;;;;;;5.72;2.53;;;;;;;21.70;60.57;98826.38;2618550;39;20178;-64
2022/06/26 07:24:33;;;;;;;1.90;1.80;;;;;;;21.54;60.96;98822.03;2618631;54;20582;-64
2022/06/26 07:27:38;;;;;;;3.45;2.80;;;;;;;21.45;61.08;98837.06;2618704;54;20041;-65
2022/06/26 07:30:09;;;;;;;5.20;2.38;;;;;;;21.46;60.50;98830.59;2618982;54;20522;-65
2022/06/26 07:32:54;;;;;;;4.63;3.63;;;;;;;21.65;59.89;98831.75;2617961;51;20061;-65
2022/06/26 07:35:24;;;;;;;7.53;4.10;;;;;;;21.76;59.84;98829.91;2618882;46;20072;-65
2022/06/26 07:37:54;;;;;;;3.63;2.35;;;;;;;21.91;59.56;98823.75;2617973;54;20077;-67
2022/06/26 07:40:24;;;;;;;3.05;2.75;;;;;;;22.02;59.34;98817.31;2618524;54;20042;-66
2022/06/26 07:42:56;;;;;;;3.33;2.38;;;;;;;22.20;58.79;98818.69;2617965;47;20030;-65
2022/06/26 07:45:31;;;;;;;4.20;2.10;;;;;;;22.22;59.05;98816.56;2618205;54;20034;-64
2022/06/26 07:48:09;;;;;;;3.17;2.10;;;;;;;22.20;58.70;98816.00;2619551;39;20433;-65
2022/06/26 07:50:42;;;;;;;3.38;2.10;;;;;;;22.20;58.35;98816.81;2620182;51;20037;-66
2022/06/26 07:53:16;;;;;;;2.47;1.80;;;;;;;22.11;58.05;98815.69;2618666;46;20038;-66
2022/06/26 07:55:46;;;;;;;1.70;1.60;;;;;;;22.07;57.78;98814.63;2618828;47;20052;-65
2022/06/26 07:58:16;;;;;;;2.95;1.45;;;;;;;22.12;57.39;98809.22;2619866;39;20410;-66
2022/06/26 08:00:46;;;;;;;3.00;1.60;;;;;;;22.24;56.84;98806.31;2619702;54;20030;-67
2022/06/26 08:03:18;;;;;;;1.42;1.30;;;;;;;22.29;56.18;98810.91;2619289;54;20027;-67
2022/06/26 08:05:49;;;;;;;1.10;1.00;;;;;;;22.25;55.04;98814.16;2621161;54;20027;-65
2022/06/26 08:08:19;;;;;;;2.00;1.80;;;;;;;22.34;54.62;98803.66;2620221;54;20147;-66
2022/06/26 08:10:49;;;;;;;1.48;1.38;;;;;;;22.40;54.66;98799.06;2620686;47;20035;-65
2022/06/26 08:13:19;;;;;;;2.17;1.98;;;;;;;22.48;54.81;98796.63;2618633;54;20048;-66
2022/06/26 08:15:49;;;;;;;2.22;1.50;;;;;;;22.60;53.81;98798.22;2618653;47;20030;-66
2022/06/26 08:18:21;;;;;;;1.52;1.20;;;;;;;22.67;53.41;98794.19;2619645;54;20110;-64
2022/06/26 08:20:51;;;;;;;3.50;1.20;;;;;;;22.77;52.83;98800.63;2622492;54;20038;-65
2022/06/26 08:23:21;;;;;;;2.88;1.08;;;;;;;22.86;51.89;98799.00;2622756;47;20077;-66
2022/06/26 08:25:52;;;;;;;1.88;1.10;;;;;;;22.90;51.99;98803.63;2623071;39;20443;-65
2022/06/26 08:28:21;;;;;;;1.00;0.90;;;;;;;22.96;51.96;98804.41;2620805;54;20534;-65
2022/06/26 08:30:51;;;;;;;0.88;0.88;;;;;;;22.94;51.56;98798.47;2621990;54;20047;-65
2022/06/26 08:33:24;;;;;;;3.08;1.40;;;;;;;22.97;51.97;98811.41;2622349;54;20033;-65
2022/06/26 08:35:53;;;;;;;3.87;2.60;;;;;;;23.08;51.94;98812.19;2622744;54;20037;-65
2022/06/26 08:38:23;;;;;;;1.85;1.17;;;;;;;23.15;51.67;98810.03;2622796;54;20037;-66
2022/06/26 08:40:53;;;;;;;1.20;1.10;;;;;;;23.28;51.26;98805.94;2623265;54;20031;-64
2022/06/26 08:43:24;;;;;;;2.45;2.25;;;;;;;23.29;51.11;98812.94;2623756;54;20054;-65
2022/06/26 08:46:06;;;;;;;5.82;2.00;;;;;;;23.44;50.66;98823.69;2623742;54;20550;-66
2022/06/26 08:48:44;;;;;;;3.35;1.67;;;;;;;23.59;50.80;98812.00;2624250;54;20026;-64
2022/06/26 08:51:14;;;;;;;3.00;1.48;;;;;;;23.63;50.75;98813.84;2624747;54;20031;-64
2022/06/26 08:53:45;;;;;;;1.20;1.10;;;;;;;23.79;50.48;98811.91;2622521;54;20039;-65
2022/06/26 08:56:15;;;;;;;3.83;2.30;;;;;;;23.80;50.07;98815.41;2624033;54;20146;-66
2022/06/26 08:58:45;;;;;;;1.73;1.02;;;;;;;23.95;49.31;98810.72;2623896;54;20038;-67
2022/06/26 09:01:14;;;;;;;2.10;1.92;;;;;;;24.00;49.44;98818.00;2623632;54;20039;-66
2022/06/26 09:03:47;;;;;;;3.72;1.60;;;;;;;23.99;49.67;98811.00;2623968;54;20034;-66
2022/06/26 09:06:17;;;;;;;2.88;2.58;;;;;;;23.97;48.85;98805.06;2624995;54;20082;-66
2022/06/26 09:08:49;;;;;;;1.00;1.00;;;;;;;23.87;48.65;98807.81;2624638;39;20473;-67
2022/06/26 09:11:20;;;;;;;1.88;0.90;;;;;;;23.82;48.96;98805.16;2623921;54;20038;-65
2022/06/26 09:13:53;;;;;;;0.98;0.90;;;;;;;23.85;49.07;98802.72;2624852;54;20026;-67
2022/06/26 09:16:33;;;;;;;2.92;2.25;;;;;;;23.88;49.43;98818.38;2625229;54;20094;-66
2022/06/26 09:19:12;;;;;;;3.72;1.30;;;;;;;23.95;49.05;98815.34;2623709;47;20079;-66
2022/06/26 09:21:42;;;;;;;1.30;1.20;;;;;;;24.11;48.64;98818.75;2622569;47;20042;-66
2022/06/26 09:24:13;;;;;;;1.30;1.00;;;;;;;24.19;47.49;98818.16;2623809;39;20436;-66
2022/06/26 09:27:04;;;;;;;1.98;1.67;;;;;;;24.25;47.28;98816.19;2623341;54;20041;-69
2022/06/26 09:29:33;;;;;;;1.52;1.20;;;;;;;24.36;46.57;98813.16;2623213;54;20046;-65
2022/06/26 09:32:11;;;;;;;1.00;0.70;;;;;;;24.45;45.20;98813.38;2622847;54;20027;-66
2022/06/26 09:34:45;;;;;;;2.22;1.00;;;;;;;24.55;45.67;98824.09;2623492;54;20115;-67
2022/06/26 09:37:16;;;;;;;0.80;0.80;;;;;;;24.49;45.58;98811.72;2623903;54;20053;-67
2022/06/26 09:40:07;;;;;;;0.95;0.90;;;;;;;24.63;45.46;98817.28;2624082;54;20078;-66
2022/06/26 09:42:37;;;;;;;2.10;1.10;;;;;;;24.60;45.34;98820.56;2622793;54;20030;-65
2022/06/26 09:45:11;;;;;;;2.33;1.13;;;;;;;24.65;44.90;98823.19;2623291;47;20035;-66
2022/06/26 09:47:43;;;;;;;2.22;0.88;;;;;;;24.59;44.37;98811.63;2623755;54;20033;-67
2022/06/26 09:50:15;;;;;;;1.67;1.10;;;;;;;24.61;44.64;98819.44;2621401;54;20053;-64
2022/06/26 09:52:45;;;;;;;1.30;1.20;;;;;;;24.78;44.27;98817.16;2623006;39;20438;-66
2022/06/26 09:55:15;;;;;;;1.33;1.10;;;;;;;24.99;44.05;98823.16;2621112;54;20283;-65
2022/06/26 09:57:47;;;;;;;0.90;0.90;;;;;;;25.29;44.09;98818.53;2620088;54;20073;-66
2022/06/26 10:00:17;;;;;;;1.02;0.90;;;;;;;25.34;43.03;98800.31;2619110;54;20030;-64
2022/06/26 10:08:30;;;;;;;0.80;0.80;;;;;;;25.48;42.28;98802.34;2619546;54;20030;-67
2022/06/26 10:11:01;;;;;;;0.80;0.80;;;;;;;25.51;40.89;98805.25;2619640;54;20023;-65
2022/06/26 10:13:35;;;;;;;2.53;1.10;;;;;;;25.70;40.55;98807.97;2619212;54;20039;-65
2022/06/26 10:16:19;;;;;;;0.80;0.80;;;;;;;25.87;40.90;98804.81;2619821;39;20446;-65
2022/06/26 10:19:07;;;;;;;1.20;1.10;;;;;;;25.90;42.39;98806.94;2619732;54;20041;-65
2022/06/26 10:21:42;;;;;;;3.53;3.05;;;;;;;26.01;41.99;98805.69;2619366;39;20531;-66
2022/06/26 10:24:11;;;;;;;1.33;0.80;;;;;;;25.99;39.29;98807.88;2619299;54;20555;-66
2022/06/26 10:26:52;;;;;;;2.53;2.28;;;;;;;26.01;39.22;98813.00;2619503;54;20042;-66
2022/06/26 10:29:22;;;;;;;2.30;1.05;;;;;;;26.02;40.37;98803.78;2619366;54;20048;-65
2022/06/26 10:31:52;;;;;;;2.50;2.03;;;;;;;26.06;40.80;98811.03;2619221;54;20138;-65
2022/06/26 10:34:23;;;;;;;1.55;1.20;;;;;;;26.01;40.99;98813.81;2619729;54;20038;-65
2022/06/26 10:37:03;;;;;;;1.50;1.05;;;;;;;25.80;42.17;98810.59;2619373;54;20030;-66
2022/06/26 10:39:45;;;;;;;1.20;1.10;;;;;;;25.45;43.10;98809.94;2619192;54;20023;-66
2022/06/26 10:45:07;;;;;;;2.88;1.20;;;;;;;25.06;44.18;98803.88;2619572;54;20018;-66
2022/06/26 10:47:49;;;;;;;2.10;1.90;;;;;;;24.89;44.29;98807.03;2618846;47;20023;-65
2022/06/26 10:50:31;;;;;;;2.05;1.30;;;;;;;24.90;44.28;98805.94;2618976;54;20560;-67
2022/06/26 10:53:18;;;;;;;1.08;1.02;;;;;;;24.70;44.43;98799.66;2619428;54;20154;-66
2022/06/26 10:55:51;;;;;;;1.13;0.93;;;;;;;24.51;45.07;98795.25;2619062;46;20031;-68
2022/06/26 10:58:24;;;;;;;1.00;1.00;;;;;;;24.36;45.72;98790.72;2619892;54;20042;-66
2022/06/26 11:00:54;;;;;;;;;;;;;;;24.32;46.14;98795.88;2619303;54;20600;-64
2022/06/26 11:03:25;;;;;;;4.82;2.10;;;;;;;24.31;46.67;98810.50;2619505;54;19969;-65
2022/06/26 11:05:57;;;;;;;1.58;1.40;;;;;;;24.13;47.23;98805.78;2619104;51;20554;-66
2022/06/26 11:08:33;;;;;;;1.92;1.75;;;;;;;23.96;47.73;98814.25;2618517;54;20066;-66
2022/06/26 11:11:04;;;;;;;1.83;1.48;;;;;;;23.80;48.36;98810.00;2619755;54;20557;-64
2022/06/26 11:13:35;;;;;;;1.65;1.52;;;;;;;23.60;48.72;98806.34;2619536;54;20581;-65
2022/06/26 11:16:06;;;;;;;1.90;1.30;;;;;;;23.44;49.02;98800.19;2623337;54;20132;-66
2022/06/26 11:18:37;;;;;;;1.73;1.23;;;;;;;23.36;49.59;98799.97;2623478;54;20090;-65
2022/06/26 11:21:07;;;;;;;1.77;1.38;;;;;;;23.24;49.51;98792.19;2621725;54;20065;-66
2022/06/26 11:23:41;;;;;;;2.00;1.90;;;;;;;23.16;49.91;98798.16;2623068;39;20380;-66
2022/06/26 11:26:12;;;;;;;2.08;1.88;;;;;;;23.13;50.15;98794.09;2623156;54;20031;-66
2022/06/26 11:28:43;;;;;;;3.13;1.92;;;;;;;23.11;50.80;98803.56;2623134;54;20046;-65
2022/06/26 11:31:21;;;;;;;4.18;2.60;;;;;;;23.02;50.98;98800.59;2622505;54;20042;-68
2022/06/26 11:33:51;;;;;;;3.00;1.80;;;;;;;22.89;51.21;98801.16;2622451;54;20046;-67
2022/06/26 11:36:22;;;;;;;3.38;1.50;;;;;;;22.78;51.64;98805.78;2623606;54;20034;-66
2022/06/26 11:38:56;;;;;;;5.00;4.18;;;;;;;22.68;51.99;98798.50;2622711;54;20126;-66
2022/06/26 11:41:27;;;;;;;1.90;1.60;;;;;;;22.68;51.86;98801.19;2622097;54;20038;-66
2022/06/26 11:43:58;;;;;;;2.08;1.52;;;;;;;22.73;51.98;98798.47;2619062;47;20038;-66
2022/06/26 11:46:27;;;;;;;3.72;1.83;;;;;;;22.73;52.06;98803.88;2619310;54;20037;-66
2022/06/26 11:48:57;;;;;;;2.25;1.70;;;;;;;22.71;52.15;98807.94;2619166;54;20571;-66
2022/06/26 11:51:27;;;;;;;1.75;1.60;;;;;;;22.62;52.79;98810.38;2619579;54;20030;-66
2022/06/26 11:53:59;;;;;;;2.05;1.20;;;;;;;22.56;53.07;98813.31;2619270;54;20043;-69
2022/06/26 11:56:31;;;;;;;1.52;1.35;;;;;;;22.50;53.43;98815.22;2619289;54;20038;-68
2022/06/26 11:59:02;;;;;;;2.72;1.80;;;;;;;22.50;53.09;98807.94;2619709;54;20037;-66
2022/06/26 12:01:36;;;;;;;2.63;1.30;;;;;;;22.44;53.84;98800.94;2618662;54;20025;-65
2022/06/26 12:04:07;;;;;;;2.40;1.63;;;;;;;22.39;53.66;98797.44;2618217;47;20070;-65
2022/06/26 12:06:39;;;;;;;2.13;1.38;;;;;;;22.38;53.84;98801.22;2619068;54;20042;-66
2022/06/26 12:09:23;;;;;;;1.50;1.40;;;;;;;22.40;54.00;98799.84;2619444;54;20038;-64
2022/06/26 12:11:55;;;;;;;1.70;1.50;;;;;;;22.46;53.82;98806.06;2618293;54;20035;-65
2022/06/26 12:14:28;;;;;;;1.35;1.17;;;;;;;22.57;53.80;98807.66;2618326;54;20022;-66